createdAt,value
2024-04-30T00:00:48.807Z,6.10
2024-04-30T00:03:15.816Z,6.10
2024-04-30T00:05:45.245Z,6.10
2024-04-30T00:08:12.358Z,6.00
2024-04-30T00:10:39.399Z,6.00
2024-04-30T00:13:06.468Z,6.00
2024-04-30T00:15:33.531Z,6.00
2024-04-30T00:18:00.648Z,5.80
2024-04-30T00:20:27.823Z,5.70
2024-04-30T00:22:54.861Z,5.70
2024-04-30T00:25:21.888Z,5.60
2024-04-30T00:27:50.316Z,5.40
2024-04-30T00:30:17.540Z,5.40
2024-04-30T00:32:44.628Z,5.30
2024-04-30T00:35:11.856Z,5.20
2024-04-30T00:37:39.054Z,5.20
2024-04-30T00:40:06.777Z,5.30
2024-04-30T00:42:34.994Z,5.20
2024-04-30T00:45:02.109Z,5.10
2024-04-30T00:47:30.667Z,5.00
2024-04-30T00:49:57.845Z,4.90
2024-04-30T00:52:25.801Z,4.90
2024-04-30T00:54:53.491Z,4.90
2024-04-30T00:57:20.779Z,4.90
2024-04-30T00:59:48.729Z,4.80
2024-04-30T01:02:16.221Z,4.80
2024-04-30T01:04:43.324Z,4.80
2024-04-30T01:07:10.520Z,4.80
2024-04-30T01:09:37.530Z,4.70
2024-04-30T01:12:04.895Z,4.70
2024-04-30T01:14:32.024Z,4.60
2024-04-30T01:16:59.031Z,4.60
2024-04-30T01:19:26.107Z,4.50
2024-04-30T01:21:53.150Z,4.40
2024-04-30T01:24:20.156Z,4.40
2024-04-30T01:26:47.107Z,4.40
2024-04-30T01:29:14.175Z,4.40
2024-04-30T01:31:41.139Z,4.40
2024-04-30T01:34:08.221Z,4.60
2024-04-30T01:36:35.284Z,4.50
2024-04-30T01:39:02.351Z,4.50
2024-04-30T01:41:29.466Z,4.50
2024-04-30T01:43:56.555Z,4.50
2024-04-30T01:46:23.522Z,4.50
2024-04-30T01:48:50.701Z,4.40
2024-04-30T01:51:17.799Z,4.30
2024-04-30T01:53:45.209Z,4.20
2024-04-30T01:56:12.297Z,4.20
2024-04-30T01:58:39.630Z,4.20
2024-04-30T02:01:07.018Z,4.10
2024-04-30T02:03:34.091Z,4.10
2024-04-30T02:06:01.178Z,4.00
2024-04-30T02:08:28.196Z,4.10
2024-04-30T02:10:55.214Z,4.20
2024-04-30T02:13:22.293Z,4.10
2024-04-30T02:15:49.259Z,4.10
2024-04-30T02:18:16.452Z,4.10
2024-04-30T02:20:43.529Z,4.10
2024-04-30T02:23:10.518Z,4.00
2024-04-30T02:25:37.586Z,4.00
2024-04-30T02:28:05.095Z,4.00
2024-04-30T02:30:50.618Z,4.00
2024-04-30T02:33:36.416Z,3.90
2024-04-30T02:36:07.058Z,3.90
2024-04-30T02:38:34.139Z,3.90
2024-04-30T02:41:01.209Z,3.80
2024-04-30T02:43:28.233Z,3.90
2024-04-30T02:45:55.318Z,3.90
2024-04-30T02:48:22.321Z,3.90
2024-04-30T02:50:49.436Z,3.90
2024-04-30T02:53:16.485Z,3.90
2024-04-30T02:55:43.559Z,3.80
2024-04-30T02:58:10.575Z,3.80
2024-04-30T03:00:37.747Z,3.90
2024-04-30T03:03:05.080Z,3.80
2024-04-30T03:05:32.051Z,3.70
2024-04-30T03:07:59.063Z,3.60
2024-04-30T03:10:26.286Z,3.60
2024-04-30T03:12:53.573Z,3.50
2024-04-30T03:15:20.573Z,3.50
2024-04-30T03:17:48.278Z,3.40
2024-04-30T03:20:16.085Z,3.40
2024-04-30T03:22:46.157Z,3.40
2024-04-30T03:25:13.513Z,3.40
2024-04-30T03:27:43.242Z,3.40
2024-04-30T03:30:10.781Z,3.30
2024-04-30T03:32:38.068Z,3.30
2024-04-30T03:35:05.676Z,3.30
2024-04-30T03:37:32.821Z,3.20
2024-04-30T03:40:00.056Z,3.10
2024-04-30T03:42:27.223Z,3.10
2024-04-30T03:44:54.775Z,3.10
2024-04-30T03:47:22.622Z,3.00
2024-04-30T03:49:49.637Z,3.00
2024-04-30T03:52:16.712Z,3.00
2024-04-30T03:54:43.775Z,3.00
2024-04-30T03:57:11.019Z,3.00
2024-04-30T03:59:38.039Z,3.00
2024-04-30T04:02:05.048Z,3.10
2024-04-30T04:04:32.153Z,3.10
2024-04-30T04:06:59.291Z,3.10
2024-04-30T04:09:26.561Z,3.10
2024-04-30T04:12:12.175Z,3.00
2024-04-30T04:14:48.881Z,3.10
2024-04-30T04:17:20.157Z,3.00
2024-04-30T04:19:50.482Z,3.00
2024-04-30T04:22:17.554Z,3.00
2024-04-30T04:24:44.662Z,3.10
2024-04-30T04:27:11.619Z,3.10
2024-04-30T04:29:38.641Z,3.20
2024-04-30T04:32:07.529Z,3.20
2024-04-30T04:34:34.683Z,3.30
2024-04-30T04:37:01.862Z,3.50
2024-04-30T04:39:28.878Z,3.80
2024-04-30T04:41:55.898Z,4.10
2024-04-30T04:44:22.968Z,4.40
2024-04-30T04:46:49.911Z,4.80
2024-04-30T04:49:16.939Z,5.20
2024-04-30T04:51:44.019Z,5.70
2024-04-30T04:54:10.989Z,6.10
2024-04-30T04:56:38.059Z,6.60
2024-04-30T04:59:05.279Z,6.90
2024-04-30T05:01:32.300Z,7.30
2024-04-30T05:03:59.298Z,7.50
2024-04-30T05:06:26.349Z,7.70
2024-04-30T05:08:53.309Z,7.90
2024-04-30T05:11:20.380Z,8.00
2024-04-30T05:13:47.413Z,8.20
2024-04-30T05:16:14.394Z,8.40
2024-04-30T05:18:41.374Z,8.60
2024-04-30T05:21:08.622Z,8.60
2024-04-30T05:23:35.733Z,8.80
2024-04-30T05:26:02.726Z,9.00
2024-04-30T05:28:29.781Z,9.10
2024-04-30T05:30:56.788Z,9.30
2024-04-30T05:33:23.909Z,9.50
2024-04-30T05:35:51.084Z,9.70
2024-04-30T05:38:18.111Z,9.90
2024-04-30T05:40:45.052Z,9.90
2024-04-30T05:43:12.338Z,9.80
2024-04-30T05:45:39.681Z,9.80
2024-04-30T05:48:07.246Z,9.90
2024-04-30T05:50:34.327Z,9.90
2024-04-30T05:53:02.815Z,9.80
2024-04-30T05:55:29.809Z,9.70
2024-04-30T05:57:56.858Z,9.50
2024-04-30T06:00:23.843Z,9.30
2024-04-30T06:02:50.815Z,9.10
2024-04-30T06:05:17.941Z,9.10
2024-04-30T06:07:45.115Z,9.10
2024-04-30T06:10:12.114Z,9.30
2024-04-30T06:12:39.178Z,9.50
2024-04-30T06:15:06.678Z,9.60
2024-04-30T06:17:33.681Z,9.70
2024-04-30T06:20:00.754Z,9.90
2024-04-30T06:22:27.910Z,10.10
2024-04-30T06:24:54.928Z,10.00
2024-04-30T06:27:22.194Z,10.10
2024-04-30T06:29:49.223Z,10.10
2024-04-30T06:32:16.273Z,10.20
2024-04-30T06:34:43.966Z,10.40
2024-04-30T06:37:11.138Z,10.50
2024-04-30T06:39:38.204Z,10.30
2024-04-30T06:42:05.721Z,10.00
2024-04-30T06:44:33.712Z,9.90
2024-04-30T06:47:00.681Z,9.90
2024-04-30T06:49:27.734Z,9.90
2024-04-30T06:51:54.945Z,9.70
2024-04-30T06:54:22.059Z,9.60
2024-04-30T06:56:48.986Z,9.60
2024-04-30T06:59:15.961Z,9.40
2024-04-30T07:01:43.086Z,9.10
2024-04-30T07:04:10.520Z,9.00
2024-04-30T07:06:37.848Z,8.90
2024-04-30T07:09:05.024Z,8.90
2024-04-30T07:11:32.033Z,8.80
2024-04-30T07:13:59.216Z,9.00
2024-04-30T07:16:26.240Z,9.10
2024-04-30T07:18:53.302Z,9.00
2024-04-30T07:21:20.604Z,9.00
2024-04-30T07:23:47.600Z,9.00
2024-04-30T07:26:16.695Z,9.10
2024-04-30T07:28:45.343Z,9.00
2024-04-30T07:31:12.386Z,8.80
2024-04-30T07:33:42.067Z,8.90
2024-04-30T07:36:09.136Z,9.10
2024-04-30T07:38:37.669Z,9.10
2024-04-30T07:41:05.128Z,9.20
2024-04-30T07:43:32.402Z,9.30
2024-04-30T07:45:59.505Z,9.40
2024-04-30T07:48:27.205Z,9.60
2024-04-30T07:50:56.702Z,9.80
2024-04-30T07:53:23.659Z,10.10
2024-04-30T07:55:50.666Z,10.40
2024-04-30T07:58:17.733Z,10.80
2024-04-30T08:00:44.803Z,11.00
2024-04-30T08:03:11.987Z,11.00
2024-04-30T08:05:43.047Z,10.90
2024-04-30T08:08:13.896Z,10.80
2024-04-30T08:10:41.024Z,10.80
2024-04-30T08:13:08.431Z,10.80
2024-04-30T08:15:35.533Z,10.80
2024-04-30T08:18:02.746Z,10.70
2024-04-30T08:20:29.871Z,10.60
2024-04-30T08:22:56.950Z,10.60
2024-04-30T08:25:24.013Z,10.40
2024-04-30T08:27:51.037Z,10.10
2024-04-30T08:30:18.035Z,10.00
2024-04-30T08:32:45.631Z,10.00
2024-04-30T08:35:12.710Z,9.90
2024-04-30T08:37:51.442Z,9.70
2024-04-30T08:40:22.176Z,9.70
2024-04-30T08:42:51.385Z,9.60
2024-04-30T08:45:22.771Z,9.50
2024-04-30T08:47:51.614Z,9.40
2024-04-30T08:50:21.762Z,9.40
2024-04-30T08:52:49.713Z,9.40
2024-04-30T08:55:20.831Z,9.50
2024-04-30T08:57:48.109Z,9.50
2024-04-30T09:00:16.065Z,9.50
2024-04-30T09:02:43.808Z,9.60
2024-04-30T09:05:12.034Z,9.60
2024-04-30T09:07:39.002Z,9.50
2024-04-30T09:10:06.271Z,9.60
2024-04-30T09:12:33.378Z,9.70
2024-04-30T09:15:00.432Z,9.80
2024-04-30T09:17:29.037Z,10.00
2024-04-30T09:20:06.684Z,10.00
2024-04-30T09:22:54.490Z,10.10
2024-04-30T09:25:35.600Z,10.00
2024-04-30T09:28:12.903Z,10.00
2024-04-30T09:30:40.020Z,10.00
2024-04-30T09:33:10.960Z,10.00
2024-04-30T09:35:38.446Z,10.10
2024-04-30T09:38:11.549Z,10.10
2024-04-30T09:40:38.850Z,10.10
2024-04-30T09:43:06.900Z,9.90
2024-04-30T09:45:35.235Z,9.80
2024-04-30T09:48:09.304Z,9.70
2024-04-30T09:50:38.739Z,9.80
2024-04-30T09:53:07.601Z,9.80
2024-04-30T09:55:37.814Z,9.90
2024-04-30T09:58:07.008Z,10.00
2024-04-30T10:00:34.085Z,10.20
2024-04-30T10:03:07.245Z,10.60
2024-04-30T10:05:38.842Z,10.90
2024-04-30T10:08:06.584Z,11.00
2024-04-30T10:10:33.831Z,11.20
2024-04-30T10:13:12.302Z,11.30
2024-04-30T10:15:40.223Z,11.50
2024-04-30T10:18:07.709Z,11.60
2024-04-30T10:20:34.867Z,11.70
2024-04-30T10:23:02.930Z,12.00
2024-04-30T10:25:33.686Z,12.30
2024-04-30T10:28:09.023Z,12.50
2024-04-30T10:30:37.310Z,12.70
2024-04-30T10:33:04.649Z,12.90
2024-04-30T10:35:44.518Z,13.00
2024-04-30T10:38:11.642Z,12.90
2024-04-30T10:40:38.759Z,12.90
2024-04-30T10:43:06.061Z,12.90
2024-04-30T10:45:33.279Z,13.10
2024-04-30T10:48:00.600Z,13.20
2024-04-30T10:50:27.941Z,13.30
2024-04-30T10:52:56.222Z,13.50
2024-04-30T10:55:23.367Z,13.70
2024-04-30T10:57:50.476Z,13.70
2024-04-30T11:00:17.452Z,13.70
2024-04-30T11:02:48.739Z,13.80
2024-04-30T11:05:19.688Z,13.80
2024-04-30T11:07:55.702Z,14.10
2024-04-30T11:10:29.855Z,14.30
2024-04-30T11:13:01.285Z,14.40
2024-04-30T11:15:28.302Z,14.30
2024-04-30T11:17:55.480Z,14.40
2024-04-30T11:20:23.148Z,14.40
2024-04-30T11:22:50.230Z,14.50
2024-04-30T11:25:17.554Z,14.50
2024-04-30T11:27:44.596Z,14.70
2024-04-30T11:30:11.838Z,14.90
2024-04-30T11:32:39.026Z,15.00
2024-04-30T11:35:06.066Z,15.00
2024-04-30T11:37:34.902Z,15.00
2024-04-30T11:40:02.057Z,15.10
2024-04-30T11:42:34.482Z,15.30
2024-04-30T11:45:07.280Z,15.70
2024-04-30T11:47:34.324Z,16.00
2024-04-30T11:50:01.497Z,16.10
2024-04-30T11:52:28.548Z,16.20
2024-04-30T11:54:55.544Z,16.30
2024-04-30T11:57:22.528Z,16.30
2024-04-30T11:59:54.336Z,16.30
2024-04-30T12:02:21.661Z,16.30
2024-04-30T12:04:48.747Z,16.20
2024-04-30T12:07:15.847Z,16.00
2024-04-30T12:09:42.946Z,16.00
2024-04-30T12:12:09.960Z,15.80
2024-04-30T12:14:36.917Z,15.60
2024-04-30T12:17:04.270Z,15.50
2024-04-30T12:19:31.448Z,15.30
2024-04-30T12:21:59.316Z,15.00
2024-04-30T12:24:26.425Z,14.70
2024-04-30T12:26:53.408Z,14.60
2024-04-30T12:29:22.542Z,14.50
2024-04-30T12:31:49.688Z,14.40
2024-04-30T12:34:16.693Z,14.40
2024-04-30T12:36:44.002Z,14.40
2024-04-30T12:39:11.073Z,14.30
2024-04-30T12:41:41.335Z,14.20
2024-04-30T12:44:10.549Z,14.20
2024-04-30T12:46:37.798Z,14.20
2024-04-30T12:49:05.196Z,14.20
2024-04-30T12:51:32.442Z,14.20
2024-04-30T12:53:59.704Z,14.20
2024-04-30T12:56:27.008Z,14.30
2024-04-30T12:58:54.016Z,14.30
2024-04-30T13:01:23.377Z,14.30
2024-04-30T13:03:53.426Z,14.40
2024-04-30T13:06:20.645Z,14.40
2024-04-30T13:08:47.986Z,14.40
2024-04-30T13:11:15.549Z,14.40
2024-04-30T13:13:42.723Z,14.40
2024-04-30T13:16:10.104Z,14.40
2024-04-30T13:18:37.180Z,14.30
2024-04-30T13:21:04.413Z,14.30
2024-04-30T13:23:35.698Z,14.30
2024-04-30T13:26:02.831Z,14.30
2024-04-30T13:28:29.811Z,14.30
2024-04-30T13:30:56.758Z,14.30
2024-04-30T13:33:24.481Z,14.30
2024-04-30T13:35:51.502Z,14.30
2024-04-30T13:38:18.503Z,14.30
2024-04-30T13:40:45.852Z,14.40
2024-04-30T13:43:13.005Z,14.40
2024-04-30T13:45:40.219Z,14.40
2024-04-30T13:48:08.855Z,14.40
2024-04-30T13:50:35.967Z,14.50
2024-04-30T13:53:03.218Z,14.50
2024-04-30T13:55:30.231Z,14.60
2024-04-30T13:57:57.187Z,14.70
2024-04-30T14:00:24.188Z,14.70
2024-04-30T14:02:51.245Z,14.70
2024-04-30T14:05:18.374Z,14.80
2024-04-30T14:07:45.899Z,14.90
2024-04-30T14:10:13.213Z,14.90
2024-04-30T14:12:40.438Z,14.90
2024-04-30T14:15:07.569Z,14.90
2024-04-30T14:17:35.846Z,14.90
2024-04-30T14:20:03.836Z,14.90
2024-04-30T14:22:30.910Z,14.80
2024-04-30T14:24:58.812Z,14.70
2024-04-30T14:27:25.786Z,14.70
2024-04-30T14:29:52.888Z,14.70
2024-04-30T14:32:21.369Z,14.60
2024-04-30T14:34:48.479Z,14.60
2024-04-30T14:37:15.677Z,14.50
2024-04-30T14:39:43.814Z,14.60
2024-04-30T14:42:10.698Z,14.60
2024-04-30T14:44:37.706Z,14.70
2024-04-30T14:47:04.911Z,14.80
2024-04-30T14:49:32.065Z,14.90
2024-04-30T14:51:59.205Z,14.80
2024-04-30T14:54:26.149Z,14.80
2024-04-30T14:56:55.397Z,14.70
2024-04-30T14:59:23.229Z,14.80
2024-04-30T15:01:50.310Z,14.80
2024-04-30T15:04:17.382Z,14.80
2024-04-30T15:06:44.497Z,14.70
2024-04-30T15:09:11.591Z,14.70
2024-04-30T15:11:38.722Z,14.70
2024-04-30T15:14:05.864Z,14.70
2024-04-30T15:16:34.183Z,14.60
2024-04-30T15:19:01.695Z,14.50
2024-04-30T15:21:28.696Z,14.50
2024-04-30T15:23:55.741Z,14.50
2024-04-30T15:26:22.742Z,14.40
2024-04-30T15:28:49.716Z,14.50
2024-04-30T15:31:17.777Z,14.60
2024-04-30T15:33:45.008Z,14.60
2024-04-30T15:36:12.899Z,14.60
2024-04-30T15:38:40.263Z,14.70
2024-04-30T15:41:07.305Z,14.80
2024-04-30T15:43:36.380Z,14.90
2024-04-30T15:46:04.708Z,14.90
2024-04-30T15:48:32.144Z,14.80
2024-04-30T15:51:06.475Z,14.90
2024-04-30T15:53:33.580Z,14.90
2024-04-30T15:56:10.004Z,14.90
2024-04-30T15:58:45.400Z,14.90
2024-04-30T16:01:12.709Z,14.80
2024-04-30T16:03:39.779Z,14.70
2024-04-30T16:06:10.116Z,14.70
2024-04-30T16:08:37.571Z,14.70
2024-04-30T16:11:10.426Z,14.70
2024-04-30T16:13:39.933Z,14.70
2024-04-30T16:16:15.969Z,14.70
2024-04-30T16:18:47.357Z,14.70
2024-04-30T16:21:15.552Z,14.80
2024-04-30T16:23:43.958Z,14.80
2024-04-30T16:26:11.526Z,14.70
2024-04-30T16:28:43.534Z,14.60
2024-04-30T16:31:11.467Z,14.40
2024-04-30T16:33:38.984Z,14.40
2024-04-30T16:36:06.934Z,14.40
2024-04-30T16:38:34.037Z,14.30
2024-04-30T16:41:01.977Z,14.20
2024-04-30T16:43:28.961Z,14.10
2024-04-30T16:45:56.095Z,14.00
2024-04-30T16:48:24.956Z,14.00
2024-04-30T16:50:52.187Z,13.90
2024-04-30T16:53:19.247Z,13.90
2024-04-30T16:55:46.253Z,13.80
2024-04-30T16:58:13.308Z,13.80
2024-04-30T17:00:40.396Z,13.80
2024-04-30T17:03:07.632Z,13.70
2024-04-30T17:05:34.725Z,13.70
2024-04-30T17:08:01.717Z,13.70
2024-04-30T17:10:28.713Z,13.60
2024-04-30T17:12:55.823Z,13.60
2024-04-30T17:15:23.032Z,13.50
2024-04-30T17:17:50.124Z,13.50
2024-04-30T17:20:17.308Z,13.40
2024-04-30T17:22:44.281Z,13.40
2024-04-30T17:25:11.318Z,13.40
2024-04-30T17:27:38.411Z,13.30
2024-04-30T17:30:06.011Z,13.30
2024-04-30T17:32:33.005Z,13.20
2024-04-30T17:35:00.027Z,13.20
2024-04-30T17:37:27.258Z,13.20
2024-04-30T17:39:55.378Z,13.10
2024-04-30T17:42:22.534Z,13.10
2024-04-30T17:44:49.588Z,13.00
2024-04-30T17:47:16.704Z,13.00
2024-04-30T17:49:44.627Z,13.00
2024-04-30T17:52:12.425Z,12.90
2024-04-30T17:54:39.748Z,12.90
2024-04-30T17:57:06.866Z,12.90
2024-04-30T17:59:33.923Z,12.80
2024-04-30T18:02:00.877Z,12.80
2024-04-30T18:04:28.001Z,12.80
2024-04-30T18:06:55.231Z,12.80
2024-04-30T18:09:22.406Z,12.70
2024-04-30T18:11:52.322Z,12.70
2024-04-30T18:14:19.420Z,12.70
2024-04-30T18:16:46.510Z,12.70
2024-04-30T18:19:13.646Z,12.70
2024-04-30T18:21:44.188Z,12.70
2024-04-30T18:24:11.573Z,12.70
2024-04-30T18:26:40.154Z,12.60
2024-04-30T18:29:07.264Z,12.60
2024-04-30T18:31:34.296Z,12.50
2024-04-30T18:34:01.673Z,12.50
2024-04-30T18:36:28.774Z,12.50
2024-04-30T18:38:55.839Z,12.40
2024-04-30T18:41:28.416Z,12.40
2024-04-30T18:43:57.934Z,12.40
2024-04-30T18:46:24.958Z,12.30
2024-04-30T18:48:52.478Z,12.30
2024-04-30T18:51:20.755Z,12.20
2024-04-30T18:53:47.983Z,12.20
2024-04-30T18:56:17.729Z,12.10
2024-04-30T18:58:46.174Z,12.00
2024-04-30T19:01:14.440Z,12.00
2024-04-30T19:03:41.954Z,12.00
2024-04-30T19:06:10.867Z,11.90
2024-04-30T19:08:38.360Z,11.90
2024-04-30T19:11:06.923Z,11.80
2024-04-30T19:13:34.804Z,11.80
2024-04-30T19:16:02.764Z,11.90
2024-04-30T19:18:30.131Z,11.80
2024-04-30T19:20:57.348Z,11.80
2024-04-30T19:23:34.239Z,11.80
2024-04-30T19:26:02.172Z,11.80
2024-04-30T19:28:29.602Z,11.80
2024-04-30T19:30:56.882Z,11.70
2024-04-30T19:33:24.283Z,11.70
2024-04-30T19:35:51.377Z,11.70
2024-04-30T19:38:18.463Z,11.60
2024-04-30T19:40:46.405Z,11.60
2024-04-30T19:43:16.700Z,11.60
2024-04-30T19:45:44.225Z,11.60
2024-04-30T19:48:16.841Z,11.60
2024-04-30T19:50:46.070Z,11.50
2024-04-30T19:53:13.227Z,11.50
2024-04-30T19:55:41.206Z,11.50
2024-04-30T19:58:08.464Z,11.50
2024-04-30T20:00:36.073Z,11.40
2024-04-30T20:03:03.409Z,11.40
2024-04-30T20:05:30.624Z,11.40
2024-04-30T20:07:59.748Z,11.40
2024-04-30T20:10:26.880Z,11.40
2024-04-30T20:12:54.805Z,11.40
2024-04-30T20:15:21.969Z,11.40
2024-04-30T20:17:49.269Z,11.40
2024-04-30T20:20:16.372Z,11.30
2024-04-30T20:22:45.734Z,11.30
2024-04-30T20:25:13.661Z,11.30
2024-04-30T20:27:41.051Z,11.20
2024-04-30T20:30:11.476Z,11.20
2024-04-30T20:32:40.393Z,11.20
2024-04-30T20:35:08.341Z,11.20
2024-04-30T20:37:35.404Z,11.20
2024-04-30T20:40:02.817Z,11.10
2024-04-30T20:42:29.910Z,11.10
2024-04-30T20:44:57.106Z,11.10
2024-04-30T20:47:24.171Z,11.10
2024-04-30T20:49:51.171Z,11.00
2024-04-30T20:52:19.742Z,11.00
2024-04-30T20:54:46.856Z,11.00
2024-04-30T20:57:13.826Z,11.00
2024-04-30T20:59:40.829Z,11.00
2024-04-30T21:02:09.837Z,10.90
2024-04-30T21:04:36.973Z,10.90
2024-04-30T21:07:04.283Z,10.90
2024-04-30T21:09:31.602Z,10.90
2024-04-30T21:11:58.712Z,10.80
2024-04-30T21:14:25.684Z,10.80
2024-04-30T21:16:52.689Z,10.80
2024-04-30T21:19:20.524Z,10.80
2024-04-30T21:21:47.755Z,10.80
2024-04-30T21:24:14.785Z,10.70
2024-04-30T21:26:42.508Z,10.70
2024-04-30T21:29:09.441Z,10.70
2024-04-30T21:31:36.577Z,10.70
2024-04-30T21:34:03.754Z,10.70
2024-04-30T21:36:31.135Z,10.80
2024-04-30T21:38:58.109Z,10.80
2024-04-30T21:41:25.205Z,10.70
2024-04-30T21:43:52.374Z,10.70
2024-04-30T21:46:19.320Z,10.70
2024-04-30T21:48:46.316Z,10.70
2024-04-30T21:51:13.424Z,10.70
2024-04-30T21:53:40.522Z,10.80
2024-04-30T21:56:07.781Z,10.70
2024-04-30T21:58:34.953Z,10.70
2024-04-30T22:01:02.204Z,10.70
2024-04-30T22:03:29.500Z,10.70
2024-04-30T22:05:58.055Z,10.70
2024-04-30T22:08:25.129Z,10.70
2024-04-30T22:10:52.795Z,10.60
2024-04-30T22:13:20.171Z,10.60
2024-04-30T22:15:47.424Z,10.50
2024-04-30T22:18:14.630Z,10.50
2024-04-30T22:20:41.703Z,10.50
2024-04-30T22:23:08.744Z,10.50
2024-04-30T22:25:35.727Z,10.40
2024-04-30T22:28:02.848Z,10.40
2024-04-30T22:30:29.911Z,10.40
2024-04-30T22:32:57.168Z,10.30
2024-04-30T22:35:24.346Z,10.40
2024-04-30T22:37:51.961Z,10.40
2024-04-30T22:40:18.992Z,10.30
2024-04-30T22:42:46.227Z,10.30
2024-04-30T22:45:13.287Z,10.30
2024-04-30T22:47:40.458Z,10.20
2024-04-30T22:50:07.741Z,10.20
2024-04-30T22:52:34.708Z,10.20
2024-04-30T22:55:01.817Z,10.20
2024-04-30T22:57:28.962Z,10.20
2024-04-30T22:59:55.924Z,10.10
2024-04-30T23:02:23.328Z,10.10
2024-04-30T23:04:53.371Z,10.00
2024-04-30T23:07:20.584Z,10.00
2024-04-30T23:09:47.635Z,10.00
2024-04-30T23:12:14.680Z,10.00
2024-04-30T23:14:41.665Z,9.90
2024-04-30T23:17:08.555Z,9.90
2024-04-30T23:19:35.599Z,9.90
2024-04-30T23:22:02.847Z,9.90
2024-04-30T23:24:30.065Z,9.90
2024-04-30T23:26:57.073Z,9.90
2024-04-30T23:29:25.473Z,9.90
2024-04-30T23:31:54.196Z,9.90
2024-04-30T23:34:21.225Z,9.90
2024-04-30T23:36:48.354Z,9.80
2024-04-30T23:39:15.483Z,9.80
2024-04-30T23:41:42.428Z,9.80
2024-04-30T23:44:09.407Z,9.80
2024-04-30T23:46:36.567Z,9.70
2024-04-30T23:49:03.686Z,9.70
2024-04-30T23:51:31.236Z,9.70
2024-04-30T23:53:58.391Z,9.70
2024-04-30T23:56:25.368Z,9.70
2024-04-30T23:58:52.327Z,9.60
